Time;durP1;ratioP1;P1;durP2;ratioP2;P2;SDS_P1;SDS_P2;PMS_P1;PMS_P2;Temp;Humidity;BMP_temperature;BMP_pressure;BME280_temperature;BME280_humidity;BME280_pressure;Samples;Min_cycle;Max_cycle;Signal;HPM_P1;HPM_P2
2022/01/07 00:00:54;;;;;;;3.77;1.43;;;0.60;99.90;;;;;;5156559;27;20814;-57
2022/01/07 00:03:22;;;;;;;3.80;1.70;;;0.60;99.90;;;;;;5157080;27;20831;-58
2022/01/07 00:05:49;;;;;;;4.00;1.60;;;0.60;99.90;;;;;;5156539;27;20716;-59
2022/01/07 00:08:16;;;;;;;3.58;1.65;;;0.50;99.90;;;;;;5154751;27;20452;-58
2022/01/07 00:10:43;;;;;;;3.22;1.73;;;0.50;99.90;;;;;;5154565;27;20419;-59
2022/01/07 00:13:10;;;;;;;3.50;1.70;;;0.50;99.90;;;;;;5155428;27;20503;-59
2022/01/07 00:15:39;;;;;;;4.53;1.55;;;0.50;99.90;;;;;;5156020;27;20781;-59
2022/01/07 00:18:06;;;;;;;4.30;1.47;;;0.40;99.90;;;;;;5136631;27;20421;-58
2022/01/07 00:20:34;;;;;;;2.90;1.27;;;0.50;99.90;;;;;;5155285;27;20779;-59
2022/01/07 00:23:01;;;;;;;3.15;1.45;;;0.50;99.90;;;;;;5156004;27;20500;-59
2022/01/07 00:25:28;;;;;;;3.58;1.40;;;0.60;99.90;;;;;;5157973;27;20504;-58
2022/01/07 00:27:55;;;;;;;3.33;1.70;;;0.60;99.90;;;;;;5157147;27;20899;-58
2022/01/07 00:30:22;;;;;;;2.40;1.25;;;0.80;99.90;;;;;;5158375;27;20504;-58
2022/01/07 00:32:52;;;;;;;4.40;1.40;;;0.80;99.90;;;;;;5157844;27;20779;-59
2022/01/07 00:35:20;;;;;;;3.45;1.30;;;0.80;99.90;;;;;;5157709;27;20473;-58
2022/01/07 00:37:49;;;;;;;4.13;1.40;;;0.80;99.90;;;;;;5158040;27;20519;-59
2022/01/07 00:40:18;;;;;;;2.38;1.40;;;0.80;99.90;;;;;;5156219;27;20417;-59
2022/01/07 00:42:46;;;;;;;3.60;1.38;;;0.90;99.90;;;;;;5156189;27;20499;-58
2022/01/07 00:45:13;;;;;;;2.73;1.20;;;0.90;99.90;;;;;;5155274;27;20420;-59
2022/01/07 00:47:40;;;;;;;2.45;1.40;;;0.70;99.90;;;;;;5153808;27;20783;-59
2022/01/07 00:50:09;;;;;;;4.40;1.30;;;0.60;99.90;;;;;;5155374;27;20496;-59
2022/01/07 00:52:36;;;;;;;2.50;1.00;;;0.60;99.90;;;;;;5154459;27;20878;-59
2022/01/07 00:55:04;;;;;;;4.55;1.30;;;0.60;99.90;;;;;;5154257;27;20500;-59
2022/01/07 00:57:31;;;;;;;2.22;1.20;;;0.60;99.90;;;;;;5152678;27;20424;-58
2022/01/07 00:59:58;;;;;;;3.92;1.42;;;0.70;99.90;;;;;;5154186;27;20475;-58
2022/01/07 01:02:25;;;;;;;3.80;1.20;;;0.70;99.90;;;;;;5154050;27;20678;-58
2022/01/07 01:04:52;;;;;;;2.57;1.27;;;0.70;99.90;;;;;;5154368;27;20902;-58
2022/01/07 01:07:21;;;;;;;2.13;1.00;;;0.70;99.90;;;;;;5154393;27;20508;-59
2022/01/07 01:09:48;;;;;;;3.33;1.40;;;0.60;99.90;;;;;;5156840;27;20495;-58
2022/01/07 01:12:15;;;;;;;3.10;1.20;;;0.60;99.90;;;;;;5156842;27;20786;-58
2022/01/07 01:14:44;;;;;;;2.85;1.10;;;0.70;99.90;;;;;;5157407;27;20843;-58
2022/01/07 01:17:11;;;;;;;2.65;1.13;;;0.70;99.90;;;;;;5157076;27;20419;-58
2022/01/07 01:19:42;;;;;;;4.77;1.30;;;0.70;99.90;;;;;;5156543;27;20436;-59
2022/01/07 01:22:09;;;;;;;4.60;1.30;;;0.70;99.90;;;;;;5155856;27;20499;-58
2022/01/07 01:24:37;;;;;;;4.40;1.60;;;0.60;99.90;;;;;;5155496;27;20413;-58
2022/01/07 01:27:05;;;;;;;4.35;1.10;;;0.50;99.90;;;;;;5156153;27;20516;-57
2022/01/07 01:29:32;;;;;;;3.37;1.20;;;0.50;99.90;;;;;;5155599;27;20503;-57
2022/01/07 01:31:59;;;;;;;5.40;1.50;;;0.30;99.90;;;;;;5154498;27;20716;-57
2022/01/07 01:34:27;;;;;;;4.60;1.60;;;0.20;99.90;;;;;;5153014;27;20421;-59
2022/01/07 01:36:54;;;;;;;3.63;1.40;;;0.20;99.90;;;;;;5155028;27;20544;-58
2022/01/07 01:39:21;;;;;;;3.50;1.30;;;0.20;99.90;;;;;;5154895;27;20445;-58
2022/01/07 01:41:49;;;;;;;5.45;1.67;;;0.20;99.90;;;;;;5155504;27;20503;-59
2022/01/07 01:44:16;;;;;;;4.10;1.60;;;0.20;99.90;;;;;;5157164;27;20515;-58
2022/01/07 01:46:43;;;;;;;3.80;1.40;;;0.20;99.90;;;;;;5138687;27;20497;-58
2022/01/07 01:49:10;;;;;;;6.30;1.50;;;0.20;99.90;;;;;;5156100;27;20899;-58
2022/01/07 01:51:38;;;;;;;2.97;1.50;;;0.20;99.90;;;;;;5155778;27;20414;-60
2022/01/07 01:54:05;;;;;;;2.90;1.20;;;0.20;99.90;;;;;;5156248;27;20511;-58
2022/01/07 01:56:34;;;;;;;6.13;1.55;;;0.20;99.90;;;;;;5155633;27;20888;-58
2022/01/07 01:59:02;;;;;;;5.28;1.55;;;0.20;99.90;;;;;;5156219;27;20662;-59
2022/01/07 02:01:29;;;;;;;5.00;1.63;;;0.20;99.90;;;;;;5135569;27;20770;-58
2022/01/07 02:03:56;;;;;;;4.15;1.60;;;0.10;99.90;;;;;;5135935;27;20418;-59
2022/01/07 02:06:23;;;;;;;3.85;1.75;;;0.10;99.90;;;;;;5135889;27;20887;-59
2022/01/07 02:08:52;;;;;;;3.67;1.40;;;0.10;99.90;;;;;;5134996;27;20881;-60
2022/01/07 02:11:19;;;;;;;5.28;1.40;;;0.10;99.90;;;;;;5136233;27;20854;-58
2022/01/07 02:13:48;;;;;;;3.23;1.87;;;0.10;99.90;;;;;;5135953;27;20505;-58
2022/01/07 02:16:18;;;;;;;3.90;1.50;;;0.20;99.90;;;;;;5135172;27;20418;-59
2022/01/07 02:18:45;;;;;;;2.90;1.70;;;0.20;99.90;;;;;;5135827;27;20516;-58
2022/01/07 02:21:14;;;;;;;3.88;1.33;;;0.20;99.90;;;;;;5135735;28;20501;-58
2022/01/07 02:23:41;;;;;;;3.70;1.50;;;0.20;99.90;;;;;;5136011;27;20495;-59
2022/01/07 02:26:08;;;;;;;3.70;1.50;;;0.20;99.90;;;;;;5136029;28;20509;-59
2022/01/07 02:28:35;;;;;;;3.97;1.75;;;0.20;99.90;;;;;;5136376;28;20501;-59
2022/01/07 02:31:03;;;;;;;5.30;1.60;;;0.20;99.90;;;;;;5135417;28;20505;-59
2022/01/07 02:33:30;;;;;;;3.60;1.58;;;0.20;99.90;;;;;;5135199;28;20521;-59
2022/01/07 02:35:57;;;;;;;3.75;1.52;;;0.30;99.90;;;;;;5134713;28;20501;-58
2022/01/07 02:38:25;;;;;;;4.43;1.77;;;0.30;99.90;;;;;;5134899;28;20430;-58
2022/01/07 02:40:52;;;;;;;3.60;1.50;;;0.30;99.90;;;;;;5135456;28;20501;-58
2022/01/07 02:43:19;;;;;;;3.40;1.50;;;0.30;99.90;;;;;;5135715;28;20516;-57
2022/01/07 02:45:46;;;;;;;3.13;1.70;;;0.30;99.90;;;;;;5135733;28;20509;-58
2022/01/07 02:48:12;;;;;;;4.85;1.85;;;0.30;99.90;;;;;;5135176;28;20929;-59
2022/01/07 02:50:40;;;;;;;4.60;1.80;;;0.30;99.90;;;;;;5137197;27;20414;-58
2022/01/07 02:53:09;;;;;;;5.32;1.55;;;0.20;99.90;;;;;;5139202;27;20509;-60
2022/01/07 02:55:38;;;;;;;5.00;2.00;;;0.10;99.90;;;;;;5139357;27;20422;-58
2022/01/07 02:58:07;;;;;;;3.60;1.70;;;0.10;99.90;;;;;;5139218;27;20754;-58
2022/01/07 03:00:34;;;;;;;3.83;1.70;;;0.10;99.90;;;;;;5152178;27;20503;-58
2022/01/07 03:03:04;;;;;;;6.22;1.50;;;0.20;99.90;;;;;;5159800;27;20502;-58
2022/01/07 03:05:31;;;;;;;3.80;1.70;;;0.20;99.90;;;;;;5160147;27;20467;-58
2022/01/07 03:07:58;;;;;;;4.82;1.50;;;0.10;99.90;;;;;;5160093;27;20507;-59
2022/01/07 03:10:29;;;;;;;5.53;1.90;;;0.00;99.90;;;;;;5160279;27;20503;-58
2022/01/07 03:12:59;;;;;;;3.70;1.60;;;0.00;99.90;;;;;;5160364;27;20831;-59
2022/01/07 03:15:26;;;;;;;5.78;1.70;;;0.00;99.90;;;;;;5160097;27;20520;-59
2022/01/07 03:17:52;;;;;;;4.53;1.83;;;0.00;99.90;;;;;;5160114;27;20427;-59
2022/01/07 03:20:22;;;;;;;2.80;1.40;;;-0.10;99.90;;;;;;5159372;27;20512;-59
2022/01/07 03:22:50;;;;;;;5.82;1.30;;;0.00;99.90;;;;;;5159427;27;20491;-59
2022/01/07 03:25:18;;;;;;;4.10;1.58;;;0.10;99.90;;;;;;5158443;27;20503;-57
2022/01/07 03:27:45;;;;;;;3.97;1.50;;;0.00;99.90;;;;;;5158164;27;20460;-58
2022/01/07 03:30:16;;;;;;;3.10;1.40;;;0.00;99.90;;;;;;5158167;27;20495;-58
2022/01/07 03:32:43;;;;;;;4.15;1.60;;;0.00;99.90;;;;;;5159119;27;20519;-59
2022/01/07 03:35:11;;;;;;;3.40;1.58;;;0.00;99.90;;;;;;5159369;27;20413;-59
2022/01/07 03:37:39;;;;;;;2.50;1.40;;;0.00;99.90;;;;;;5159614;27;20409;-59
2022/01/07 03:40:07;;;;;;;1.80;1.20;;;0.00;99.90;;;;;;5158577;27;20515;-59
2022/01/07 03:42:34;;;;;;;2.83;1.35;;;0.00;99.90;;;;;;5159240;27;20503;-56
2022/01/07 03:45:01;;;;;;;2.03;1.20;;;0.00;99.90;;;;;;5160413;27;20432;-57
2022/01/07 03:47:29;;;;;;;3.10;1.10;;;0.00;99.90;;;;;;5159545;27;20488;-57
2022/01/07 03:49:56;;;;;;;2.60;1.00;;;0.00;99.90;;;;;;5158518;27;20504;-57
2022/01/07 03:52:26;;;;;;;2.70;1.08;;;0.00;99.90;;;;;;5159778;27;20440;-59
2022/01/07 03:54:53;;;;;;;2.30;0.90;;;0.00;99.90;;;;;;5151019;27;20507;-57
2022/01/07 03:57:20;;;;;;;2.65;1.00;;;0.00;99.90;;;;;;5158779;27;20419;-58
2022/01/07 03:59:50;;;;;;;4.03;1.10;;;0.00;99.90;;;;;;5158530;27;20433;-58
2022/01/07 04:02:17;;;;;;;2.10;1.00;;;0.00;99.90;;;;;;5157357;27;20413;-59
2022/01/07 04:04:46;;;;;;;3.47;1.10;;;0.00;99.90;;;;;;5159166;27;20601;-59
2022/01/07 04:07:13;;;;;;;1.90;1.00;;;0.10;99.90;;;;;;5158836;27;20851;-58
2022/01/07 04:09:40;;;;;;;3.10;1.00;;;0.10;99.90;;;;;;5158954;27;20519;-58
2022/01/07 04:12:08;;;;;;;2.40;1.05;;;0.00;99.90;;;;;;5159025;27;20409;-58
2022/01/07 04:14:36;;;;;;;2.67;1.10;;;0.00;99.90;;;;;;5158968;27;20504;-58
2022/01/07 04:17:03;;;;;;;1.90;0.90;;;0.10;99.90;;;;;;5158964;27;20499;-58
2022/01/07 04:19:30;;;;;;;2.85;1.00;;;0.00;99.90;;;;;;5158965;27;20417;-58
2022/01/07 04:21:59;;;;;;;2.67;1.10;;;0.00;99.90;;;;;;5157699;27;20503;-58
2022/01/07 04:24:25;;;;;;;3.05;1.30;;;0.20;99.90;;;;;;5156148;27;20425;-58
2022/01/07 04:26:52;;;;;;;3.63;0.90;;;0.10;99.90;;;;;;5158468;27;20504;-58
2022/01/07 04:29:19;;;;;;;2.88;0.90;;;0.10;99.90;;;;;;5158234;27;20519;-59
2022/01/07 04:31:46;;;;;;;2.63;1.08;;;0.00;99.90;;;;;;5157199;27;20499;-57
2022/01/07 04:34:13;;;;;;;2.33;1.00;;;0.00;99.90;;;;;;5158064;27;20472;-58
2022/01/07 04:36:40;;;;;;;3.70;1.10;;;0.00;99.90;;;;;;5157821;27;20489;-58
2022/01/07 04:39:08;;;;;;;3.78;1.10;;;0.00;99.90;;;;;;5157843;27;20528;-58
2022/01/07 04:41:35;;;;;;;2.40;1.00;;;0.00;99.90;;;;;;5157747;27;20778;-58
2022/01/07 04:44:01;;;;;;;2.17;1.00;;;0.00;99.90;;;;;;5157570;27;20797;-59
2022/01/07 04:46:28;;;;;;;4.18;1.10;;;0.00;99.90;;;;;;5156890;27;20503;-58
2022/01/07 04:48:55;;;;;;;2.20;1.00;;;0.10;99.90;;;;;;5157171;27;20439;-57
2022/01/07 04:51:22;;;;;;;1.98;0.90;;;-0.10;99.90;;;;;;5156775;27;20409;-58
2022/01/07 04:53:49;;;;;;;3.17;1.23;;;-0.10;99.90;;;;;;5158001;27;20728;-58
2022/01/07 04:56:17;;;;;;;2.92;1.10;;;-0.10;99.90;;;;;;5157948;27;20413;-58
2022/01/07 04:58:44;;;;;;;3.05;1.23;;;-0.10;99.90;;;;;;5157600;27;20460;-58
2022/01/07 05:01:11;;;;;;;2.95;1.00;;;-0.10;99.90;;;;;;5157062;27;20432;-58
2022/01/07 05:03:38;;;;;;;2.72;1.10;;;-0.10;99.90;;;;;;5157966;27;20420;-57
2022/01/07 05:06:23;;;;;;;2.10;1.00;;;-0.20;99.90;;;;;;5158228;27;20500;-58
2022/01/07 05:08:50;;;;;;;3.17;1.20;;;-0.30;99.90;;;;;;5148380;27;20832;-58
2022/01/07 05:11:19;;;;;;;3.88;1.30;;;-0.30;99.90;;;;;;5157018;27;20452;-58
2022/01/07 05:13:46;;;;;;;2.67;1.00;;;-0.30;99.90;;;;;;5156327;27;20525;-56
2022/01/07 05:16:13;;;;;;;2.53;1.20;;;-0.30;99.90;;;;;;5157480;27;20907;-53
2022/01/07 05:18:40;;;;;;;2.60;1.00;;;-0.30;99.90;;;;;;5156772;27;20451;-55
2022/01/07 05:21:06;;;;;;;3.88;1.13;;;-0.40;99.90;;;;;;5157773;27;20419;-54
2022/01/07 05:23:33;;;;;;;5.18;1.40;;;-0.40;99.90;;;;;;5156897;27;20927;-52
2022/01/07 05:26:06;;;;;;;4.10;1.30;;;-0.30;99.90;;;;;;5157584;27;20853;-53
2022/01/07 05:28:35;;;;;;;4.40;1.20;;;-0.40;99.90;;;;;;5156755;27;20605;-58
2022/01/07 05:31:03;;;;;;;3.75;1.10;;;-0.40;99.90;;;;;;5156329;27;20441;-59
2022/01/07 05:33:30;;;;;;;3.92;1.30;;;-0.30;99.90;;;;;;5156254;27;20429;-58
2022/01/07 05:35:56;;;;;;;3.80;1.73;;;-0.30;99.90;;;;;;5157344;27;20417;-58
2022/01/07 05:38:23;;;;;;;3.97;1.10;;;-0.30;99.90;;;;;;5156360;27;20523;-58
2022/01/07 05:40:50;;;;;;;3.47;1.00;;;-0.30;99.90;;;;;;5156420;27;20445;-58
2022/01/07 05:43:17;;;;;;;2.72;1.20;;;-0.30;99.90;;;;;;5155760;27;20516;-59
2022/01/07 05:45:46;;;;;;;4.00;1.10;;;-0.30;99.90;;;;;;5155008;27;20503;-58
2022/01/07 05:48:12;;;;;;;3.75;1.40;;;-0.20;99.90;;;;;;5154360;27;20424;-58
2022/01/07 05:50:39;;;;;;;2.95;1.35;;;-0.20;99.90;;;;;;5154545;27;20516;-58
2022/01/07 05:53:07;;;;;;;3.90;1.30;;;-0.30;99.90;;;;;;5155308;27;20431;-56
2022/01/07 05:55:34;;;;;;;3.97;1.38;;;-0.30;99.90;;;;;;5154996;27;20448;-56
2022/01/07 05:58:01;;;;;;;3.40;1.20;;;-0.20;99.90;;;;;;5153745;27;20524;-58
2022/01/07 06:00:27;;;;;;;3.50;1.48;;;-0.20;99.90;;;;;;5155923;27;20499;-59
2022/01/07 06:02:56;;;;;;;3.80;1.30;;;0.00;99.90;;;;;;5156296;27;20516;-58
2022/01/07 06:05:23;;;;;;;3.30;1.20;;;0.10;99.90;;;;;;5154240;27;20451;-59
2022/01/07 06:07:50;;;;;;;5.25;1.30;;;0.00;99.90;;;;;;5142031;27;20460;-59
2022/01/07 06:10:17;;;;;;;3.15;1.15;;;-0.10;99.90;;;;;;5150759;27;20527;-59
2022/01/07 06:12:44;;;;;;;3.50;1.20;;;0.00;99.90;;;;;;5155760;27;20499;-59
2022/01/07 06:15:11;;;;;;;4.45;1.40;;;0.10;99.90;;;;;;5149731;27;20466;-59
2022/01/07 06:17:38;;;;;;;4.80;1.60;;;0.10;99.90;;;;;;5155189;27;20545;-59
2022/01/07 06:20:08;;;;;;;4.35;1.40;;;0.00;99.90;;;;;;5154345;27;20499;-59
2022/01/07 06:22:35;;;;;;;5.00;1.60;;;0.10;99.90;;;;;;5141860;27;20498;-59
2022/01/07 06:25:02;;;;;;;4.05;1.75;;;0.20;99.90;;;;;;5132855;27;20829;-60
2022/01/07 06:27:29;;;;;;;3.85;1.50;;;0.30;99.90;;;;;;5133473;28;20788;-59
2022/01/07 06:29:57;;;;;;;6.53;1.65;;;0.30;99.90;;;;;;5133581;27;20426;-59
2022/01/07 06:32:24;;;;;;;4.50;1.50;;;0.30;99.90;;;;;;5132753;27;20861;-57
2022/01/07 06:34:52;;;;;;;3.47;1.45;;;0.30;99.90;;;;;;5133716;28;20424;-56
2022/01/07 06:37:20;;;;;;;4.53;1.60;;;0.30;99.90;;;;;;5141752;27;20417;-57
2022/01/07 06:39:47;;;;;;;4.07;1.60;;;0.20;99.90;;;;;;5139750;27;20426;-58
2022/01/07 06:42:14;;;;;;;4.93;1.57;;;0.20;99.90;;;;;;5143521;27;20505;-57
2022/01/07 06:44:41;;;;;;;4.30;1.70;;;0.20;99.90;;;;;;5146997;27;20509;-58
2022/01/07 06:47:08;;;;;;;2.90;1.30;;;0.20;99.90;;;;;;5142109;27;20509;-57
2022/01/07 06:49:35;;;;;;;4.40;1.52;;;0.20;99.90;;;;;;5135843;27;21026;-57
2022/01/07 06:52:02;;;;;;;4.82;1.70;;;0.30;99.90;;;;;;5143107;27;20420;-59
2022/01/07 06:54:31;;;;;;;3.85;1.40;;;0.50;99.90;;;;;;5137357;27;20436;-56
2022/01/07 06:56:59;;;;;;;5.10;1.60;;;0.50;99.90;;;;;;5135513;27;20496;-53
2022/01/07 06:59:26;;;;;;;3.95;1.50;;;0.50;99.90;;;;;;5134426;27;20511;-52
2022/01/07 07:01:53;;;;;;;3.60;1.40;;;0.50;99.90;;;;;;5152825;27;20495;-54
2022/01/07 07:04:19;;;;;;;3.85;1.42;;;0.60;99.90;;;;;;5152810;27;20421;-53
2022/01/07 07:06:46;;;;;;;3.20;1.60;;;0.70;99.90;;;;;;5152149;27;20416;-54
2022/01/07 07:09:15;;;;;;;4.13;1.30;;;0.60;99.90;;;;;;5153880;27;20927;-55
2022/01/07 07:11:44;;;;;;;3.60;1.40;;;0.50;99.90;;;;;;5154180;27;20859;-51
2022/01/07 07:14:11;;;;;;;4.82;1.50;;;0.40;99.90;;;;;;5153060;27;20429;-55
2022/01/07 07:16:38;;;;;;;4.25;1.30;;;0.40;99.90;;;;;;5152753;27;20511;-55
2022/01/07 07:19:05;;;;;;;3.60;1.50;;;0.40;99.90;;;;;;5142408;27;20638;-56
2022/01/07 07:21:34;;;;;;;4.80;1.42;;;0.40;99.90;;;;;;5152032;27;20492;-55
2022/01/07 07:24:02;;;;;;;4.72;1.30;;;0.30;99.90;;;;;;5153960;27;20428;-53
2022/01/07 07:26:29;;;;;;;4.20;1.45;;;0.30;99.90;;;;;;5152499;27;20496;-54
2022/01/07 07:28:58;;;;;;;3.95;1.30;;;0.30;99.90;;;;;;5148707;27;20425;-56
2022/01/07 07:31:24;;;;;;;4.88;1.60;;;0.40;99.90;;;;;;5151899;27;20503;-54
2022/01/07 07:34:18;;;;;;;4.32;1.58;;;0.40;99.90;;;;;;5149455;27;20497;-56
2022/01/07 07:36:45;;;;;;;4.35;1.80;;;0.40;99.90;;;;;;5151884;27;20824;-54
2022/01/07 07:39:13;;;;;;;3.95;1.70;;;0.40;99.90;;;;;;5155137;27;20428;-55
2022/01/07 07:41:43;;;;;;;4.13;1.40;;;0.40;99.90;;;;;;5155929;27;20491;-54
2022/01/07 07:44:11;;;;;;;3.00;1.50;;;0.40;99.90;;;;;;5155052;27;20433;-51
2022/01/07 07:46:40;;;;;;;4.00;1.45;;;0.40;99.90;;;;;;5156172;27;20442;-53
2022/01/07 07:49:08;;;;;;;4.10;1.70;;;0.40;99.90;;;;;;5157079;27;20873;-55
2022/01/07 07:51:35;;;;;;;4.50;1.40;;;0.50;99.90;;;;;;5156635;27;20423;-53
2022/01/07 07:54:06;;;;;;;3.20;1.50;;;0.50;99.90;;;;;;5155973;27;20547;-52
2022/01/07 07:56:33;;;;;;;4.50;1.73;;;0.50;99.90;;;;;;5156366;27;20448;-54
2022/01/07 07:59:00;;;;;;;2.83;1.20;;;0.50;99.90;;;;;;5155816;27;20461;-51
2022/01/07 08:01:28;;;;;;;4.25;1.30;;;0.60;99.90;;;;;;5154966;27;20417;-53
2022/01/07 08:03:55;;;;;;;5.53;2.70;;;0.60;99.90;;;;;;5153390;27;20507;-54
2022/01/07 08:06:22;;;;;;;6.35;1.40;;;0.70;99.90;;;;;;5151715;27;20427;-50
2022/01/07 08:08:49;;;;;;;4.55;2.20;;;0.70;99.90;;;;;;5155194;27;20520;-54
2022/01/07 08:11:16;;;;;;;4.30;1.50;;;0.80;99.90;;;;;;5154374;27;21041;-53
2022/01/07 08:16:30;;;;;;;4.60;1.50;;;0.90;99.90;;;;;;5152432;27;20397;-55
2022/01/07 08:18:58;;;;;;;3.97;1.80;;;1.10;99.90;;;;;;5154709;27;20511;-53
2022/01/07 08:21:27;;;;;;;7.70;3.07;;;1.20;99.90;;;;;;5151574;27;20432;-54
2022/01/07 08:23:55;;;;;;;4.97;1.50;;;1.30;99.90;;;;;;5154931;27;20428;-56
2022/01/07 08:26:23;;;;;;;3.80;1.40;;;1.40;99.90;;;;;;5157743;27;20412;-54
2022/01/07 08:28:53;;;;;;;2.70;1.30;;;1.40;99.90;;;;;;5155054;27;20431;-55
2022/01/07 08:34:53;;;;;;;3.20;1.30;;;1.30;99.90;;;;;;5155885;27;20435;-53
2022/01/07 08:36:59;;;;;;;4.50;1.40;;;1.30;99.90;;;;;;5154185;27;20869;-53
2022/01/07 08:39:26;;;;;;;3.50;1.30;;;1.70;99.90;;;;;;5154940;27;20452;-55
2022/01/07 08:41:53;;;;;;;4.40;1.30;;;1.70;99.90;;;;;;5156627;27;20422;-54
2022/01/07 08:44:22;;;;;;;2.78;1.30;;;1.60;99.90;;;;;;5156917;27;20428;-50
2022/01/07 08:46:50;;;;;;;3.40;1.40;;;1.50;99.90;;;;;;5156470;27;20421;-53
2022/01/07 08:49:18;;;;;;;3.40;1.40;;;2.10;99.90;;;;;;5153997;27;20432;-53
2022/01/07 08:51:45;;;;;;;3.42;1.30;;;2.20;99.90;;;;;;5154707;27;20796;-52
2022/01/07 08:54:12;;;;;;;2.97;1.30;;;2.20;99.90;;;;;;5154396;27;20487;-55
2022/01/07 08:56:39;;;;;;;3.67;1.27;;;2.10;99.90;;;;;;5156374;27;20488;-56
2022/01/07 08:59:06;;;;;;;3.30;1.40;;;2.00;99.90;;;;;;5147216;27;20429;-54
2022/01/07 09:01:34;;;;;;;2.80;1.20;;;2.10;99.90;;;;;;5148148;27;20519;-54
2022/01/07 09:04:01;;;;;;;2.97;1.20;;;2.00;99.90;;;;;;5150875;27;20425;-55
2022/01/07 09:06:29;;;;;;;3.65;1.80;;;2.20;99.90;;;;;;5155900;27;20448;-56
2022/01/07 09:08:56;;;;;;;4.15;1.40;;;2.10;99.90;;;;;;5152845;27;20508;-57
2022/01/07 09:11:23;;;;;;;3.10;1.30;;;2.20;99.90;;;;;;5152147;27;20420;-58
2022/01/07 09:13:52;;;;;;;3.35;1.20;;;1.90;99.90;;;;;;5145215;27;20529;-58
2022/01/07 09:16:23;;;;;;;3.30;1.30;;;1.90;99.90;;;;;;5148466;27;20420;-59
2022/01/07 09:18:50;;;;;;;4.03;1.40;;;1.80;99.90;;;;;;5151772;27;20529;-57
2022/01/07 09:21:17;;;;;;;3.20;1.30;;;1.70;99.90;;;;;;5154663;27;20496;-59
2022/01/07 09:23:45;;;;;;;2.60;1.20;;;1.60;99.90;;;;;;5153994;27;20527;-59
2022/01/07 09:26:13;;;;;;;3.80;1.70;;;1.50;99.90;;;;;;5145645;27;20418;-58
2022/01/07 09:28:40;;;;;;;4.88;2.40;;;1.60;99.90;;;;;;5151460;27;20717;-58
2022/01/07 09:31:08;;;;;;;5.10;1.48;;;1.70;99.90;;;;;;5155281;27;20636;-57
2022/01/07 09:33:35;;;;;;;4.47;1.40;;;1.80;99.90;;;;;;5146566;27;20553;-59
2022/01/07 09:36:02;;;;;;;1.92;1.20;;;1.90;99.90;;;;;;5148803;27;20477;-58
2022/01/07 09:38:30;;;;;;;3.78;1.30;;;2.00;99.90;;;;;;5154739;27;20895;-58
2022/01/07 09:40:59;;;;;;;5.70;1.20;;;2.00;99.90;;;;;;5150660;27;20804;-58
2022/01/07 09:43:26;;;;;;;4.15;1.40;;;1.90;99.90;;;;;;5143027;27;20440;-57
2022/01/07 09:45:54;;;;;;;2.75;1.27;;;1.90;99.90;;;;;;5151332;27;20527;-58
2022/01/07 09:48:21;;;;;;;2.80;1.40;;;1.90;99.90;;;;;;5152343;27;20554;-59
2022/01/07 09:50:47;;;;;;;2.70;1.23;;;1.90;99.90;;;;;;5152621;27;20892;-58
2022/01/07 09:53:15;;;;;;;2.20;1.23;;;2.00;99.90;;;;;;5143443;27;20818;-59
2022/01/07 09:55:43;;;;;;;3.88;1.30;;;1.90;99.90;;;;;;5148743;27;20424;-59
2022/01/07 09:58:13;;;;;;;1.93;1.10;;;2.00;99.90;;;;;;5152217;27;20451;-60
2022/01/07 10:00:42;;;;;;;2.90;1.27;;;2.00;99.90;;;;;;5153085;27;20928;-60
2022/01/07 10:03:12;;;;;;;3.38;1.10;;;1.90;99.90;;;;;;5152062;27;20429;-59
2022/01/07 10:05:44;;;;;;;3.10;1.10;;;1.80;99.90;;;;;;5156404;27;20436;-59
2022/01/07 10:08:21;;;;;;;2.20;1.10;;;1.80;99.90;;;;;;5163341;27;20928;-60
2022/01/07 10:10:49;;;;;;;2.08;1.10;;;1.90;99.90;;;;;;5138437;27;20429;-60
2022/01/07 10:13:21;;;;;;;3.00;1.10;;;2.10;99.90;;;;;;5146435;27;20520;-59
2022/01/07 10:15:48;;;;;;;3.72;1.30;;;2.20;99.90;;;;;;5154605;27;20798;-59
2022/01/07 10:18:16;;;;;;;2.70;1.10;;;2.20;99.90;;;;;;5156024;27;20457;-58
2022/01/07 10:20:44;;;;;;;5.90;1.30;;;2.20;99.90;;;;;;5148567;27;20423;-57
2022/01/07 10:23:14;;;;;;;12.00;4.97;;;2.20;99.90;;;;;;5154271;27;20432;-55
2022/01/07 10:25:43;;;;;;;3.03;1.50;;;2.20;99.90;;;;;;5149391;27;20417;-59
2022/01/07 10:28:12;;;;;;;2.70;1.30;;;2.10;99.90;;;;;;5148672;27;20743;-59
2022/01/07 10:30:42;;;;;;;2.83;1.10;;;1.80;99.90;;;;;;5147377;27;20426;-56
2022/01/07 10:33:25;;;;;;;3.50;1.25;;;1.80;99.90;;;;;;5153643;27;20514;-56
2022/01/07 10:35:54;;;;;;;4.13;1.30;;;1.90;99.90;;;;;;5151148;27;20507;-58
2022/01/07 10:38:23;;;;;;;5.47;2.00;;;2.10;99.90;;;;;;5133316;27;20464;-58
2022/01/07 10:40:52;;;;;;;2.33;1.40;;;2.10;99.90;;;;;;5151199;27;20791;-56
2022/01/07 10:43:21;;;;;;;6.03;1.40;;;2.00;99.90;;;;;;5147755;27;20424;-57
2022/01/07 10:45:52;;;;;;;3.33;1.48;;;1.90;99.90;;;;;;5151471;27;20504;-54
2022/01/07 10:48:37;;;;;;;3.30;1.75;;;1.80;99.90;;;;;;5151886;27;20511;-56
2022/01/07 10:51:07;;;;;;;3.60;1.40;;;1.80;99.90;;;;;;5153429;27;20447;-58
2022/01/07 10:53:34;;;;;;;2.85;1.30;;;1.90;99.90;;;;;;5151255;27;20430;-56
2022/01/07 10:56:09;;;;;;;1.97;1.10;;;2.30;99.90;;;;;;5154645;27;20417;-55
2022/01/07 10:58:55;;;;;;;3.03;1.30;;;3.20;99.90;;;;;;5144031;27;20916;-54
2022/01/07 11:01:48;;;;;;;2.70;1.20;;;3.30;99.90;;;;;;5150977;27;20421;-57
2022/01/07 11:04:17;;;;;;;2.77;1.13;;;3.10;99.90;;;;;;5144799;27;20850;-56
2022/01/07 11:06:44;;;;;;;4.90;1.20;;;2.90;99.90;;;;;;5150247;27;20417;-55
2022/01/07 11:09:13;;;;;;;3.47;1.20;;;2.40;99.90;;;;;;5153440;27;20432;-54
2022/01/07 11:11:46;;;;;;;2.70;1.40;;;2.00;99.90;;;;;;5153134;27;20430;-54
2022/01/07 11:14:19;;;;;;;3.70;1.30;;;1.90;99.90;;;;;;5154726;27;20712;-56
2022/01/07 11:16:48;;;;;;;3.53;1.23;;;1.90;99.90;;;;;;5144775;27;20449;-54
2022/01/07 11:19:22;;;;;;;3.60;1.40;;;1.80;99.90;;;;;;5152441;27;20527;-56
2022/01/07 11:21:52;;;;;;;4.30;1.35;;;1.70;99.90;;;;;;5152938;27;20844;-53
2022/01/07 11:24:47;;;;;;;3.20;1.50;;;1.70;99.90;;;;;;5154016;27;20474;-55
2022/01/07 11:27:15;;;;;;;3.10;1.65;;;1.70;99.90;;;;;;5110312;27;20792;-56
2022/01/07 11:29:56;;;;;;;5.30;2.50;;;1.70;99.90;;;;;;5154468;27;20898;-55
2022/01/07 11:32:40;;;;;;;2.88;1.48;;;1.80;99.90;;;;;;5153503;27;20425;-56
2022/01/07 11:35:47;;;;;;;4.50;1.50;;;1.90;99.90;;;;;;5155549;27;20423;-55
2022/01/07 11:38:36;;;;;;;4.50;1.40;;;1.80;99.90;;;;;;5152521;27;21018;-56
2022/01/07 11:41:13;;;;;;;3.55;1.55;;;1.70;99.90;;;;;;5152721;27;20413;-53
2022/01/07 11:43:48;;;;;;;4.13;1.50;;;1.70;99.90;;;;;;5153418;27;20434;-56
2022/01/07 11:46:30;;;;;;;4.13;1.50;;;1.80;99.90;;;;;;5150633;27;20614;-56
2022/01/07 11:49:00;;;;;;;4.30;1.90;;;1.90;99.90;;;;;;5153540;27;20428;-57
2022/01/07 11:51:38;;;;;;;4.03;1.40;;;1.90;99.90;;;;;;5149258;27;20645;-54
2022/01/07 11:54:20;;;;;;;5.82;1.70;;;2.00;99.90;;;;;;5153345;27;20740;-57
2022/01/07 11:56:47;;;;;;;7.78;2.95;;;2.20;99.90;;;;;;5151904;27;20427;-57
2022/01/07 11:59:25;;;;;;;3.67;1.30;;;2.20;99.90;;;;;;5153834;27;20428;-54
2022/01/07 12:02:02;;;;;;;3.08;1.30;;;2.30;99.90;;;;;;5154101;27;20419;-55
2022/01/07 12:04:32;;;;;;;4.50;2.20;;;2.30;99.90;;;;;;5156506;27;20424;-56
2022/01/07 12:07:02;;;;;;;2.90;1.20;;;2.30;99.90;;;;;;5146619;27;20508;-56
2022/01/07 12:09:35;;;;;;;3.92;2.22;;;2.40;99.90;;;;;;5149989;27;20435;-55
2022/01/07 12:12:07;;;;;;;3.47;1.50;;;2.60;99.90;;;;;;5151230;27;20480;-55
2022/01/07 12:14:38;;;;;;;2.92;1.33;;;2.60;99.90;;;;;;5151532;27;20424;-56
2022/01/07 12:17:09;;;;;;;2.78;1.20;;;2.60;99.90;;;;;;5150192;27;20511;-55
2022/01/07 12:20:21;;;;;;;1.95;1.10;;;2.70;99.90;;;;;;5149268;27;20606;-55
2022/01/07 12:22:51;;;;;;;2.30;1.40;;;2.80;99.90;;;;;;5147075;27;20511;-56
2022/01/07 12:25:19;;;;;;;2.22;1.30;;;2.80;99.90;;;;;;5153152;27;20665;-57
2022/01/07 12:27:46;;;;;;;2.80;1.20;;;2.80;99.90;;;;;;5151758;27;20417;-58
2022/01/07 12:30:14;;;;;;;1.77;1.10;;;3.00;99.90;;;;;;5152747;27;20560;-58
2022/01/07 12:32:41;;;;;;;3.38;1.10;;;3.00;99.90;;;;;;5153529;27;20724;-57
2022/01/07 12:35:10;;;;;;;4.20;1.10;;;2.90;99.90;;;;;;5152143;27;20733;-57
2022/01/07 12:37:40;;;;;;;2.10;1.00;;;2.90;99.90;;;;;;5150567;27;20420;-59
2022/01/07 12:40:11;;;;;;;4.20;1.90;;;2.90;99.90;;;;;;5150288;27;20583;-57
2022/01/07 12:42:42;;;;;;;2.15;1.00;;;3.10;99.90;;;;;;5143091;27;20492;-56
2022/01/07 12:45:15;;;;;;;3.05;1.00;;;3.10;99.90;;;;;;5150904;27;20408;-57
2022/01/07 12:47:42;;;;;;;2.50;1.30;;;3.00;99.90;;;;;;5144610;27;20507;-58
2022/01/07 12:50:10;;;;;;;1.90;1.00;;;3.00;99.90;;;;;;5145474;27;20440;-58
2022/01/07 12:52:41;;;;;;;1.85;1.05;;;3.30;99.90;;;;;;5148177;27;20421;-57
2022/01/07 12:55:12;;;;;;;1.90;0.90;;;3.30;99.90;;;;;;5148705;27;20812;-59
2022/01/07 12:57:42;;;;;;;2.28;1.00;;;3.70;99.90;;;;;;5151603;27;20413;-57
2022/01/07 13:00:19;;;;;;;3.20;1.10;;;3.70;99.90;;;;;;5151771;27;20867;-58
2022/01/07 13:02:48;;;;;;;1.35;0.80;;;3.70;99.90;;;;;;5147036;27;20443;-59
2022/01/07 13:05:21;;;;;;;1.63;0.90;;;3.70;99.90;;;;;;5155364;27;20477;-59
2022/01/07 13:07:50;;;;;;;1.43;0.83;;;3.60;99.90;;;;;;5151920;27;20476;-58
2022/01/07 13:10:22;;;;;;;1.23;0.80;;;3.60;99.90;;;;;;5147535;27;20425;-57